createdAt,value
2019-05-07T00:02:06.205Z,7.30
2019-05-07T00:04:35.218Z,7.30
2019-05-07T00:07:04.385Z,7.30
2019-05-07T00:09:33.566Z,7.30
2019-05-07T00:12:05.124Z,7.20
2019-05-07T00:14:34.594Z,7.20
2019-05-07T00:17:04.602Z,7.20
2019-05-07T00:19:33.967Z,7.30
2019-05-07T00:22:03.101Z,7.20
2019-05-07T00:24:33.186Z,7.20
2019-05-07T00:27:02.932Z,7.30
2019-05-07T00:29:32.330Z,7.20
2019-05-07T00:32:02.980Z,7.20
2019-05-07T00:34:38.252Z,7.20
2019-05-07T00:37:13.828Z,7.20
2019-05-07T00:40:06.702Z,7.10
2019-05-07T00:42:54.832Z,7.10
2019-05-07T00:45:33.890Z,7.10
2019-05-07T00:48:03.289Z,7.10
2019-05-07T00:50:34.532Z,7.10
2019-05-07T00:53:03.669Z,7.10
2019-05-07T00:55:32.723Z,7.10
2019-05-07T00:58:02.420Z,7.20
2019-05-07T01:00:33.293Z,7.10
2019-05-07T01:03:03.124Z,7.10
2019-05-07T01:05:32.684Z,7.10
2019-05-07T01:08:02.689Z,7.10
2019-05-07T01:10:32.962Z,7.10
2019-05-07T01:13:02.909Z,7.10
2019-05-07T01:15:34.643Z,7.10
2019-05-07T01:18:03.030Z,7.10
2019-05-07T01:20:32.971Z,7.10
2019-05-07T01:23:02.752Z,7.00
2019-05-07T01:25:32.842Z,7.00
2019-05-07T01:28:02.729Z,7.00
2019-05-07T01:30:32.671Z,7.00
2019-05-07T01:33:07.880Z,6.90
2019-05-07T01:35:54.948Z,6.90
2019-05-07T01:38:23.999Z,6.80
2019-05-07T01:40:53.342Z,6.80
2019-05-07T01:43:22.837Z,6.80
2019-05-07T01:45:52.953Z,6.80
2019-05-07T01:48:27.923Z,6.80
2019-05-07T01:50:57.300Z,6.80
2019-05-07T01:53:26.343Z,6.80
2019-05-07T01:55:55.487Z,6.80
2019-05-07T01:58:24.692Z,6.70
2019-05-07T02:00:53.868Z,6.70
2019-05-07T02:03:33.259Z,6.70
2019-05-07T02:06:13.252Z,6.70
2019-05-07T02:08:52.921Z,6.70
2019-05-07T02:11:25.867Z,6.70
2019-05-07T02:13:54.850Z,6.60
2019-05-07T02:16:24.120Z,6.60
2019-05-07T02:18:53.104Z,6.70
2019-05-07T02:21:22.226Z,6.70
2019-05-07T02:23:52.456Z,6.70
2019-05-07T02:26:22.567Z,6.60
2019-05-07T02:28:52.011Z,6.60
2019-05-07T02:31:23.240Z,6.60
2019-05-07T02:33:54.165Z,6.60
2019-05-07T02:36:23.686Z,6.50
2019-05-07T02:39:12.834Z,6.50
2019-05-07T02:41:44.106Z,6.50
2019-05-07T02:44:14.006Z,6.50
2019-05-07T02:46:52.558Z,6.40
2019-05-07T02:49:43.864Z,6.50
2019-05-07T02:52:43.722Z,6.40
2019-05-07T02:55:23.558Z,6.40
2019-05-07T02:57:54.059Z,6.40
2019-05-07T03:00:24.321Z,6.30
2019-05-07T03:02:53.764Z,6.30
2019-05-07T03:05:23.314Z,6.30
2019-05-07T03:07:53.493Z,6.30
2019-05-07T03:10:23.992Z,6.30
2019-05-07T03:12:53.866Z,6.30
2019-05-07T03:15:24.253Z,6.30
2019-05-07T03:17:53.991Z,6.30
2019-05-07T03:20:28.207Z,6.30
2019-05-07T03:22:58.448Z,6.30
2019-05-07T03:25:33.871Z,6.20
2019-05-07T03:28:04.411Z,6.20
2019-05-07T03:30:45.598Z,6.20
2019-05-07T03:33:37.527Z,6.20
2019-05-07T03:36:07.992Z,6.10
2019-05-07T03:38:38.430Z,6.10
2019-05-07T03:41:07.564Z,6.10
2019-05-07T03:43:36.740Z,6.10
2019-05-07T03:46:17.169Z,6.10
2019-05-07T03:48:47.248Z,6.10
2019-05-07T03:51:16.788Z,6.10
2019-05-07T03:53:45.807Z,6.10
2019-05-07T03:56:14.884Z,6.20
2019-05-07T03:58:44.083Z,6.10
2019-05-07T04:01:13.670Z,6.10
2019-05-07T04:03:44.747Z,6.10
2019-05-07T04:06:13.935Z,6.10
2019-05-07T04:08:43.548Z,6.10
2019-05-07T04:11:13.828Z,6.10
2019-05-07T04:13:44.315Z,6.10
2019-05-07T04:16:13.922Z,6.10
2019-05-07T04:18:43.953Z,6.10
2019-05-07T04:21:14.048Z,6.10
2019-05-07T04:23:44.059Z,6.10
2019-05-07T04:26:35.824Z,6.10
2019-05-07T04:29:07.535Z,6.10
2019-05-07T04:31:42.940Z,6.10
2019-05-07T04:34:16.567Z,6.10
2019-05-07T04:36:53.474Z,6.20
2019-05-07T04:39:27.578Z,6.10
2019-05-07T04:41:56.815Z,6.10
2019-05-07T04:44:25.867Z,6.10
2019-05-07T04:46:55.129Z,6.10
2019-05-07T04:49:24.265Z,6.10
2019-05-07T04:52:00.009Z,6.10
2019-05-07T04:54:29.237Z,6.10
2019-05-07T04:56:58.829Z,6.10
2019-05-07T04:59:28.059Z,6.10
2019-05-07T05:02:04.304Z,6.10
2019-05-07T05:04:34.931Z,6.10
2019-05-07T05:07:09.140Z,6.20
2019-05-07T05:09:44.127Z,6.20
2019-05-07T05:12:13.500Z,6.20
2019-05-07T05:14:43.677Z,6.20
2019-05-07T05:17:13.250Z,6.30
2019-05-07T05:19:43.876Z,6.30
2019-05-07T05:22:34.256Z,6.40
2019-05-07T05:25:19.803Z,6.40
2019-05-07T05:27:49.012Z,6.50
2019-05-07T05:30:25.600Z,6.50
2019-05-07T05:32:54.806Z,6.60
2019-05-07T05:35:23.950Z,6.60
2019-05-07T05:37:52.945Z,6.70
2019-05-07T05:40:22.771Z,6.80
2019-05-07T05:42:58.299Z,6.80
2019-05-07T05:45:42.623Z,6.80
2019-05-07T05:48:13.568Z,6.90
2019-05-07T05:50:50.096Z,6.90
2019-05-07T05:53:32.707Z,6.90
2019-05-07T05:56:06.138Z,6.90
2019-05-07T05:58:54.439Z,7.00
2019-05-07T06:01:39.792Z,7.00
2019-05-07T06:04:22.180Z,7.10
2019-05-07T06:07:10.535Z,7.10
2019-05-07T06:09:32.959Z,7.20
2019-05-07T06:12:36.667Z,7.30
2019-05-07T06:15:23.839Z,7.30
2019-05-07T06:18:06.873Z,7.40
2019-05-07T06:20:46.702Z,7.50
2019-05-07T06:23:25.808Z,7.50
2019-05-07T06:25:54.912Z,7.60
2019-05-07T06:28:24.075Z,7.70
2019-05-07T06:30:53.470Z,7.70
2019-05-07T06:33:23.133Z,7.80
2019-05-07T06:35:52.399Z,7.80
2019-05-07T06:38:22.458Z,7.90
2019-05-07T06:40:58.779Z,7.90
2019-05-07T06:43:35.885Z,8.00
2019-05-07T06:46:12.542Z,8.10
2019-05-07T06:48:46.374Z,8.20
2019-05-07T06:51:17.563Z,8.20
2019-05-07T06:53:46.687Z,8.20
2019-05-07T06:56:15.930Z,8.20
2019-05-07T06:59:02.064Z,8.30
2019-05-07T07:01:43.314Z,8.30
2019-05-07T07:04:33.151Z,8.40
2019-05-07T07:07:32.357Z,8.50
2019-05-07T07:10:07.502Z,8.40
2019-05-07T07:12:36.711Z,8.50
2019-05-07T07:15:06.501Z,8.50
2019-05-07T07:17:36.048Z,8.60
2019-05-07T07:20:12.535Z,8.70
2019-05-07T07:22:42.567Z,8.70
2019-05-07T07:25:12.012Z,8.60
2019-05-07T07:27:42.948Z,8.70
2019-05-07T07:30:26.142Z,8.80
2019-05-07T07:32:55.464Z,8.80
2019-05-07T07:35:24.639Z,8.80
2019-05-07T07:37:53.884Z,8.80
2019-05-07T07:40:36.460Z,8.90
2019-05-07T07:43:07.204Z,8.90
2019-05-07T07:45:36.579Z,9.10
2019-05-07T07:48:05.750Z,9.10
2019-05-07T07:50:34.850Z,9.10
2019-05-07T07:53:04.241Z,9.20
2019-05-07T07:55:53.008Z,9.20
2019-05-07T07:59:01.899Z,9.20
2019-05-07T08:01:39.543Z,9.20
2019-05-07T08:04:09.015Z,9.30
2019-05-07T08:06:41.811Z,9.30
2019-05-07T08:09:12.885Z,9.20
2019-05-07T08:11:42.551Z,9.20
2019-05-07T08:14:12.739Z,9.20
2019-05-07T08:16:43.075Z,9.30
2019-05-07T08:19:21.675Z,9.30
2019-05-07T08:21:43.284Z,9.40
2019-05-07T08:24:12.484Z,9.50
2019-05-07T08:26:42.834Z,9.50
2019-05-07T08:29:12.483Z,9.50
2019-05-07T08:31:52.174Z,9.70
2019-05-07T08:34:28.842Z,9.80
2019-05-07T08:36:58.023Z,9.80
2019-05-07T08:39:27.179Z,9.80
2019-05-07T08:41:56.303Z,9.80
2019-05-07T08:44:32.424Z,9.80
2019-05-07T08:47:35.172Z,9.70
2019-05-07T08:50:04.687Z,9.70
2019-05-07T08:52:34.013Z,9.70
2019-05-07T08:55:04.811Z,9.70
2019-05-07T08:57:34.015Z,9.70
2019-05-07T09:00:04.675Z,9.70
2019-05-07T09:02:33.993Z,9.80
2019-05-07T09:05:03.183Z,9.80
2019-05-07T09:07:32.452Z,9.80
2019-05-07T09:10:02.509Z,9.80
2019-05-07T09:12:31.944Z,9.90
2019-05-07T09:15:02.182Z,9.90
2019-05-07T09:17:35.235Z,10.00
2019-05-07T09:20:04.654Z,10.10
2019-05-07T09:22:33.807Z,10.10
2019-05-07T09:25:03.270Z,10.10
2019-05-07T09:27:38.552Z,10.30
2019-05-07T09:30:42.846Z,10.40
2019-05-07T09:33:46.657Z,10.50
2019-05-07T09:36:24.231Z,10.50
2019-05-07T09:38:59.186Z,10.50
2019-05-07T09:41:27.165Z,10.60
2019-05-07T09:43:59.117Z,10.80
2019-05-07T09:46:32.523Z,11.00
2019-05-07T09:49:25.969Z,11.00
2019-05-07T09:51:56.056Z,11.00
2019-05-07T09:54:25.328Z,11.00
2019-05-07T09:56:55.239Z,11.10
2019-05-07T09:59:27.637Z,11.10
2019-05-07T10:01:58.196Z,11.20
2019-05-07T10:04:28.767Z,11.30
2019-05-07T10:06:58.576Z,11.30
2019-05-07T10:09:28.543Z,11.40
2019-05-07T10:12:06.778Z,11.50
2019-05-07T10:14:36.686Z,11.50
2019-05-07T10:17:15.063Z,11.50
2019-05-07T10:19:44.289Z,11.40
2019-05-07T10:22:13.601Z,11.40
2019-05-07T10:24:44.172Z,11.50
2019-05-07T10:27:34.924Z,11.40
2019-05-07T10:30:06.350Z,11.30
2019-05-07T10:32:35.518Z,11.30
2019-05-07T10:35:05.316Z,11.30
2019-05-07T10:37:34.600Z,11.30
2019-05-07T10:40:03.998Z,11.50
2019-05-07T10:42:33.752Z,11.50
2019-05-07T10:45:22.078Z,11.60
2019-05-07T10:48:02.420Z,11.70
2019-05-07T10:50:38.387Z,11.80
2019-05-07T10:53:02.665Z,11.80
2019-05-07T10:55:32.812Z,11.80
2019-05-07T10:58:03.121Z,11.90
2019-05-07T11:00:33.111Z,11.90
2019-05-07T11:03:02.618Z,11.90
2019-05-07T11:05:32.622Z,12.00
2019-05-07T11:08:02.465Z,12.10
2019-05-07T11:10:32.715Z,12.20
2019-05-07T11:13:02.475Z,12.40
2019-05-07T11:15:32.664Z,12.50
2019-05-07T11:18:13.514Z,12.40
2019-05-07T11:20:49.651Z,12.50
2019-05-07T11:23:13.534Z,12.40
2019-05-07T11:25:42.759Z,12.20
2019-05-07T11:28:12.484Z,12.20
2019-05-07T11:30:42.495Z,12.10
2019-05-07T11:33:12.881Z,12.00
2019-05-07T11:35:42.528Z,12.00
2019-05-07T11:38:20.508Z,12.10
2019-05-07T11:40:42.940Z,12.30
2019-05-07T11:43:26.708Z,12.40
2019-05-07T11:46:05.863Z,12.60
2019-05-07T11:48:38.202Z,12.70
2019-05-07T11:51:15.231Z,12.70
2019-05-07T11:54:12.857Z,12.60
2019-05-07T11:56:47.915Z,12.50
2019-05-07T11:59:22.201Z,12.40
2019-05-07T12:01:56.343Z,12.30
2019-05-07T12:04:27.835Z,12.20
2019-05-07T12:06:56.479Z,12.20
2019-05-07T12:09:25.620Z,12.10
2019-05-07T12:11:54.793Z,12.20
2019-05-07T12:14:30.930Z,12.20
2019-05-07T12:16:55.210Z,12.40
2019-05-07T12:19:24.551Z,12.40
2019-05-07T12:21:53.779Z,12.40
2019-05-07T12:24:22.873Z,12.40
2019-05-07T12:26:52.309Z,12.30
2019-05-07T12:29:22.151Z,12.20
2019-05-07T12:32:22.644Z,12.20
2019-05-07T12:34:56.129Z,12.30
2019-05-07T12:37:25.412Z,12.30
2019-05-07T12:39:54.498Z,12.20
2019-05-07T12:42:23.729Z,12.30
2019-05-07T12:44:52.810Z,12.40
2019-05-07T12:47:22.477Z,12.50
2019-05-07T12:49:51.827Z,12.80
2019-05-07T12:52:36.561Z,13.00
2019-05-07T12:55:23.107Z,13.10
2019-05-07T12:57:52.605Z,13.10
2019-05-07T13:00:39.889Z,13.30
2019-05-07T13:03:28.059Z,13.40
2019-05-07T13:05:57.285Z,13.50
2019-05-07T13:08:26.536Z,13.70
2019-05-07T13:10:55.741Z,13.70
2019-05-07T13:13:25.014Z,13.70
2019-05-07T13:15:54.166Z,13.70
2019-05-07T13:18:23.480Z,13.70
2019-05-07T13:20:52.773Z,13.80
2019-05-07T13:23:22.610Z,13.70
2019-05-07T13:25:52.333Z,13.70
2019-05-07T13:28:21.851Z,13.70
2019-05-07T13:30:52.646Z,13.60
2019-05-07T13:33:23.139Z,13.50
2019-05-07T13:35:52.726Z,13.40
2019-05-07T13:38:57.343Z,13.30
2019-05-07T13:41:48.581Z,13.20
2019-05-07T13:44:28.551Z,13.40
2019-05-07T13:47:15.901Z,13.50
2019-05-07T13:49:45.500Z,13.70
2019-05-07T13:52:15.907Z,13.70
2019-05-07T13:54:47.240Z,13.70
2019-05-07T13:57:16.531Z,13.60
2019-05-07T13:59:46.149Z,13.70
2019-05-07T14:02:16.098Z,13.70
2019-05-07T14:04:52.655Z,13.80
2019-05-07T14:07:23.011Z,13.90
2019-05-07T14:09:52.849Z,14.00
2019-05-07T14:12:22.946Z,14.10
2019-05-07T14:14:53.312Z,14.10
2019-05-07T14:17:26.502Z,14.10
2019-05-07T14:19:55.646Z,14.10
2019-05-07T14:22:25.912Z,14.00
2019-05-07T14:24:55.666Z,14.10
2019-05-07T14:27:24.843Z,14.10
2019-05-07T14:29:54.247Z,14.10
2019-05-07T14:32:29.938Z,14.20
2019-05-07T14:35:15.479Z,14.20
2019-05-07T14:38:04.192Z,14.30
2019-05-07T14:40:39.571Z,14.20
2019-05-07T14:43:14.141Z,14.00
2019-05-07T14:45:52.219Z,13.90
2019-05-07T14:48:22.598Z,13.90
2019-05-07T14:50:54.827Z,13.80
2019-05-07T14:53:24.088Z,13.80
2019-05-07T14:56:05.064Z,13.80
2019-05-07T14:58:34.343Z,13.90
2019-05-07T15:01:03.799Z,14.00
2019-05-07T15:03:33.156Z,14.00
2019-05-07T15:06:02.807Z,14.00
2019-05-07T15:08:32.381Z,14.00
2019-05-07T15:11:02.764Z,13.90
2019-05-07T15:13:32.354Z,13.90
2019-05-07T15:16:03.122Z,13.90
2019-05-07T15:18:52.757Z,14.00
2019-05-07T15:21:21.706Z,13.90
2019-05-07T15:23:52.957Z,13.90
2019-05-07T15:26:22.587Z,13.80
2019-05-07T15:29:03.371Z,13.80
2019-05-07T15:31:51.745Z,13.80
2019-05-07T15:34:24.037Z,13.80
2019-05-07T15:36:53.420Z,13.80
2019-05-07T15:39:22.793Z,13.90
2019-05-07T15:41:57.112Z,13.90
2019-05-07T15:44:26.367Z,14.00
2019-05-07T15:46:57.176Z,14.00
2019-05-07T15:49:26.555Z,14.00
2019-05-07T15:52:04.710Z,14.00
2019-05-07T15:54:34.055Z,14.00
2019-05-07T15:57:05.563Z,14.00
2019-05-07T15:59:34.805Z,14.00
2019-05-07T16:02:12.546Z,14.00
2019-05-07T16:04:48.189Z,14.00
2019-05-07T16:07:17.465Z,14.00
2019-05-07T16:09:54.431Z,13.90
2019-05-07T16:12:23.902Z,13.90
2019-05-07T16:14:53.304Z,13.80
2019-05-07T16:17:36.477Z,13.80
2019-05-07T16:20:05.801Z,13.80
2019-05-07T16:25:34.847Z,13.60
2019-05-07T16:28:04.859Z,13.60
2019-05-07T16:30:40.318Z,13.50
2019-05-07T16:33:09.867Z,13.60
2019-05-07T16:35:39.052Z,13.50
2019-05-07T16:38:09.397Z,13.50
2019-05-07T16:40:39.530Z,13.40
2019-05-07T16:43:11.837Z,13.40
2019-05-07T16:45:42.458Z,13.40
2019-05-07T16:48:12.099Z,13.40
2019-05-07T16:50:41.545Z,13.30
2019-05-07T16:53:13.423Z,13.20
2019-05-07T16:55:42.989Z,13.20
2019-05-07T16:58:37.540Z,13.10
2019-05-07T17:01:08.824Z,13.10
2019-05-07T17:03:52.134Z,13.10
2019-05-07T17:06:24.764Z,13.00
2019-05-07T17:09:07.561Z,13.00
2019-05-07T17:11:36.780Z,13.00
2019-05-07T17:14:06.104Z,13.00
2019-05-07T17:16:37.492Z,13.00
2019-05-07T17:19:06.823Z,13.00
2019-05-07T17:21:36.406Z,13.00
2019-05-07T17:24:06.410Z,13.00
2019-05-07T17:26:35.741Z,13.00
2019-05-07T17:29:05.250Z,13.00
2019-05-07T17:31:34.698Z,12.90
2019-05-07T17:34:04.697Z,12.90
2019-05-07T17:36:33.970Z,12.90
2019-05-07T17:39:05.827Z,12.90
2019-05-07T17:41:35.306Z,12.80
2019-05-07T17:44:04.646Z,12.80
2019-05-07T17:46:33.823Z,12.90
2019-05-07T17:49:03.071Z,12.80
2019-05-07T17:51:52.588Z,12.80
2019-05-07T17:54:22.484Z,12.80
2019-05-07T17:56:52.696Z,12.80
2019-05-07T17:59:22.081Z,12.80
2019-05-07T18:02:07.063Z,12.80
2019-05-07T18:04:48.462Z,12.80
2019-05-07T18:07:11.767Z,12.80
2019-05-07T18:09:42.428Z,12.70
2019-05-07T18:12:12.362Z,12.70
2019-05-07T18:14:42.597Z,12.70
2019-05-07T18:17:29.139Z,12.70
2019-05-07T18:19:58.427Z,12.70
2019-05-07T18:22:27.860Z,12.70
2019-05-07T18:24:57.124Z,12.70
2019-05-07T18:27:26.336Z,12.70
2019-05-07T18:29:55.456Z,12.70
2019-05-07T18:32:32.435Z,12.70
2019-05-07T18:35:02.332Z,12.80
2019-05-07T18:37:32.598Z,12.80
2019-05-07T18:40:02.635Z,12.80
2019-05-07T18:42:38.702Z,12.80
2019-05-07T18:45:08.574Z,12.80
2019-05-07T18:47:44.001Z,12.80
2019-05-07T18:50:13.436Z,12.80
2019-05-07T18:52:45.137Z,12.80
2019-05-07T18:55:14.561Z,12.80
2019-05-07T18:57:51.405Z,12.80
2019-05-07T19:00:27.430Z,12.70
2019-05-07T19:02:56.723Z,12.70
2019-05-07T19:05:35.021Z,12.60
2019-05-07T19:08:08.346Z,12.60
2019-05-07T19:10:35.079Z,12.50
2019-05-07T19:13:04.195Z,12.50
2019-05-07T19:15:33.240Z,12.40
2019-05-07T19:18:02.826Z,12.40
2019-05-07T19:20:32.741Z,12.30
2019-05-07T19:23:02.836Z,12.20
2019-05-07T19:25:44.682Z,12.10
2019-05-07T19:28:15.065Z,12.10
2019-05-07T19:30:44.595Z,12.10
2019-05-07T19:33:15.391Z,12.10
2019-05-07T19:35:48.243Z,12.00
2019-05-07T19:38:22.578Z,11.90
2019-05-07T19:40:53.380Z,11.80
2019-05-07T19:43:24.549Z,11.70
2019-05-07T19:45:53.983Z,11.70
2019-05-07T19:48:33.855Z,11.60
2019-05-07T19:51:08.057Z,11.60
2019-05-07T19:53:37.551Z,11.60
2019-05-07T19:56:16.735Z,11.60
2019-05-07T19:58:46.947Z,11.70
2019-05-07T20:01:39.603Z,11.70
2019-05-07T20:04:08.880Z,11.70
2019-05-07T20:06:44.190Z,11.70
2019-05-07T20:09:15.730Z,11.60
2019-05-07T20:11:47.319Z,11.50
2019-05-07T20:14:16.576Z,11.40
2019-05-07T20:16:46.183Z,11.40
2019-05-07T20:19:15.269Z,11.30
2019-05-07T20:21:44.611Z,11.30
2019-05-07T20:24:13.717Z,11.20
2019-05-07T20:26:43.277Z,11.20
2019-05-07T20:29:12.787Z,11.20
2019-05-07T20:31:42.453Z,11.20
2019-05-07T20:34:13.043Z,11.20
2019-05-07T20:36:42.839Z,11.20
2019-05-07T20:39:12.762Z,11.20
2019-05-07T20:41:42.915Z,11.20
2019-05-07T20:44:12.421Z,11.20
2019-05-07T20:46:42.115Z,11.20
2019-05-07T20:49:13.103Z,11.20
2019-05-07T20:51:42.511Z,11.20
2019-05-07T20:54:46.191Z,11.10
2019-05-07T20:57:18.545Z,11.10
2019-05-07T20:59:47.723Z,11.10
2019-05-07T21:02:16.810Z,11.10
2019-05-07T21:04:52.273Z,11.10
2019-05-07T21:07:22.188Z,11.20
2019-05-07T21:09:52.952Z,11.20
2019-05-07T21:12:22.600Z,11.20
2019-05-07T21:14:52.463Z,11.10
2019-05-07T21:17:22.677Z,11.10
2019-05-07T21:19:51.999Z,11.10
2019-05-07T21:22:22.644Z,11.10
2019-05-07T21:24:53.258Z,11.10
2019-05-07T21:27:24.590Z,11.10
2019-05-07T21:29:53.823Z,11.00
2019-05-07T21:32:26.323Z,11.00
2019-05-07T21:34:55.530Z,11.00
2019-05-07T21:37:24.552Z,11.00
2019-05-07T21:39:53.971Z,11.00
2019-05-07T21:42:23.301Z,10.90
2019-05-07T21:44:52.786Z,10.90
2019-05-07T21:47:22.372Z,10.90
2019-05-07T21:49:54.869Z,10.80
2019-05-07T21:52:29.924Z,10.80
2019-05-07T21:55:12.828Z,10.70
2019-05-07T21:58:02.213Z,10.70
2019-05-07T22:00:48.909Z,10.70
2019-05-07T22:03:18.479Z,10.70
2019-05-07T22:05:47.612Z,10.70
2019-05-07T22:08:16.922Z,10.70
2019-05-07T22:10:46.139Z,10.60
2019-05-07T22:13:15.239Z,10.60
2019-05-07T22:15:44.459Z,10.60
2019-05-07T22:18:13.845Z,10.60
2019-05-07T22:20:42.926Z,10.60
2019-05-07T22:23:12.024Z,10.60
2019-05-07T22:25:42.179Z,10.50
2019-05-07T22:28:13.350Z,10.50
2019-05-07T22:31:13.976Z,10.50
2019-05-07T22:33:49.967Z,10.50
2019-05-07T22:36:19.156Z,10.50
2019-05-07T22:38:48.363Z,10.50
2019-05-07T22:41:22.719Z,10.40
2019-05-07T22:43:51.875Z,10.50
2019-05-07T22:46:22.249Z,10.40
2019-05-07T22:48:51.514Z,10.40
2019-05-07T22:51:22.704Z,10.40
2019-05-07T22:53:51.502Z,10.40
2019-05-07T22:56:34.189Z,10.30
2019-05-07T22:58:53.588Z,10.30
2019-05-07T23:01:22.816Z,10.30
2019-05-07T23:03:54.001Z,10.30
2019-05-07T23:06:23.305Z,10.30
2019-05-07T23:08:53.094Z,10.30
2019-05-07T23:11:22.977Z,10.30
2019-05-07T23:13:54.681Z,10.30
2019-05-07T23:16:23.342Z,10.30
2019-05-07T23:18:52.550Z,10.30
2019-05-07T23:21:24.252Z,10.30
2019-05-07T23:23:52.862Z,10.30
2019-05-07T23:26:23.328Z,10.30
2019-05-07T23:28:52.707Z,10.30
2019-05-07T23:31:22.819Z,10.30
2019-05-07T23:33:52.529Z,10.20
2019-05-07T23:36:22.526Z,10.20
2019-05-07T23:38:52.245Z,10.20
2019-05-07T23:41:43.457Z,10.20
2019-05-07T23:44:14.491Z,10.20
2019-05-07T23:46:44.756Z,10.20
2019-05-07T23:49:14.537Z,10.10
2019-05-07T23:51:43.731Z,10.10
2019-05-07T23:54:12.851Z,10.10
2019-05-07T23:56:42.667Z,10.10
2019-05-07T23:59:14.773Z,10.10
